sensor_id;sensor_type;location;lat;lon;timestamp;P1;durP1;ratioP1;P2;durP2;ratioP2
43813;SDS011;29669;55.706;37.656;2023-01-13T00:01:11;9.90;;;5.07;;
43813;SDS011;29669;55.706;37.656;2023-01-13T00:03:40;10.45;;;4.95;;
43813;SDS011;29669;55.706;37.656;2023-01-13T00:06:09;10.60;;;4.57;;
43813;SDS011;29669;55.706;37.656;2023-01-13T00:08:39;8.65;;;4.78;;
43813;SDS011;29669;55.706;37.656;2023-01-13T00:11:07;6.75;;;4.43;;
43813;SDS011;29669;55.706;37.656;2023-01-13T00:13:35;5.53;;;3.90;;
43813;SDS011;29669;55.706;37.656;2023-01-13T00:16:05;5.88;;;3.90;;
43813;SDS011;29669;55.706;37.656;2023-01-13T00:18:34;7.93;;;4.68;;
43813;SDS011;29669;55.706;37.656;2023-01-13T00:21:06;8.32;;;4.75;;
43813;SDS011;29669;55.706;37.656;2023-01-13T00:23:34;7.50;;;4.45;;
43813;SDS011;29669;55.706;37.656;2023-01-13T00:26:06;5.72;;;4.20;;
43813;SDS011;29669;55.706;37.656;2023-01-13T00:28:33;5.90;;;3.67;;
43813;SDS011;29669;55.706;37.656;2023-01-13T00:31:05;6.75;;;4.47;;
43813;SDS011;29669;55.706;37.656;2023-01-13T00:33:34;5.80;;;4.55;;
43813;SDS011;29669;55.706;37.656;2023-01-13T00:36:03;5.20;;;3.70;;
43813;SDS011;29669;55.706;37.656;2023-01-13T00:38:32;12.38;;;4.32;;
43813;SDS011;29669;55.706;37.656;2023-01-13T00:41:02;5.72;;;4.82;;
43813;SDS011;29669;55.706;37.656;2023-01-13T00:43:31;10.02;;;5.18;;
43813;SDS011;29669;55.706;37.656;2023-01-13T00:46:00;6.47;;;3.67;;
43813;SDS011;29669;55.706;37.656;2023-01-13T00:48:28;8.27;;;4.57;;
43813;SDS011;29669;55.706;37.656;2023-01-13T00:50:56;9.35;;;4.60;;
43813;SDS011;29669;55.706;37.656;2023-01-13T00:53:25;7.80;;;5.00;;
43813;SDS011;29669;55.706;37.656;2023-01-13T00:56:00;9.35;;;4.93;;
43813;SDS011;29669;55.706;37.656;2023-01-13T00:58:30;20.27;;;4.78;;
43813;SDS011;29669;55.706;37.656;2023-01-13T01:01:09;6.05;;;3.70;;
43813;SDS011;29669;55.706;37.656;2023-01-13T01:03:42;7.18;;;4.68;;
43813;SDS011;29669;55.706;37.656;2023-01-13T01:06:15;8.65;;;4.85;;
43813;SDS011;29669;55.706;37.656;2023-01-13T01:08:42;8.75;;;5.07;;
43813;SDS011;29669;55.706;37.656;2023-01-13T01:11:14;8.60;;;4.72;;
43813;SDS011;29669;55.706;37.656;2023-01-13T01:13:44;8.45;;;4.85;;
43813;SDS011;29669;55.706;37.656;2023-01-13T01:16:13;5.88;;;4.38;;
43813;SDS011;29669;55.706;37.656;2023-01-13T01:18:43;10.50;;;4.97;;
43813;SDS011;29669;55.706;37.656;2023-01-13T01:21:13;10.20;;;4.07;;
43813;SDS011;29669;55.706;37.656;2023-01-13T01:23:41;10.15;;;4.07;;
43813;SDS011;29669;55.706;37.656;2023-01-13T01:26:13;11.30;;;5.45;;
43813;SDS011;29669;55.706;37.656;2023-01-13T01:28:43;7.40;;;4.32;;
43813;SDS011;29669;55.706;37.656;2023-01-13T01:31:15;9.55;;;4.68;;
43813;SDS011;29669;55.706;37.656;2023-01-13T01:33:42;6.68;;;4.00;;
43813;SDS011;29669;55.706;37.656;2023-01-13T01:36:10;6.82;;;3.92;;
43813;SDS011;29669;55.706;37.656;2023-01-13T01:38:38;7.25;;;4.22;;
43813;SDS011;29669;55.706;37.656;2023-01-13T01:41:05;9.43;;;5.03;;
43813;SDS011;29669;55.706;37.656;2023-01-13T01:43:49;7.53;;;4.63;;
43813;SDS011;29669;55.706;37.656;2023-01-13T01:46:37;9.35;;;4.80;;
43813;SDS011;29669;55.706;37.656;2023-01-13T01:51:52;10.27;;;4.95;;
43813;SDS011;29669;55.706;37.656;2023-01-13T01:57:18;9.23;;;4.20;;
43813;SDS011;29669;55.706;37.656;2023-01-13T01:59:53;5.35;;;4.28;;
43813;SDS011;29669;55.706;37.656;2023-01-13T02:02:23;6.43;;;3.92;;
43813;SDS011;29669;55.706;37.656;2023-01-13T02:04:51;8.02;;;4.68;;
43813;SDS011;29669;55.706;37.656;2023-01-13T02:07:25;7.13;;;4.15;;
43813;SDS011;29669;55.706;37.656;2023-01-13T02:09:55;8.75;;;4.63;;
43813;SDS011;29669;55.706;37.656;2023-01-13T02:12:27;7.40;;;4.70;;
43813;SDS011;29669;55.706;37.656;2023-01-13T02:15:08;12.43;;;5.30;;
43813;SDS011;29669;55.706;37.656;2023-01-13T02:37:49;5.78;;;4.07;;
43813;SDS011;29669;55.706;37.656;2023-01-13T02:42:47;5.40;;;4.57;;
43813;SDS011;29669;55.706;37.656;2023-01-13T02:48:43;8.55;;;4.13;;
43813;SDS011;29669;55.706;37.656;2023-01-13T02:51:14;7.80;;;4.32;;
43813;SDS011;29669;55.706;37.656;2023-01-13T02:53:47;6.57;;;4.70;;
43813;SDS011;29669;55.706;37.656;2023-01-13T02:56:19;6.30;;;3.92;;
43813;SDS011;29669;55.706;37.656;2023-01-13T02:58:49;7.30;;;4.00;;
43813;SDS011;29669;55.706;37.656;2023-01-13T03:01:17;7.85;;;3.80;;
43813;SDS011;29669;55.706;37.656;2023-01-13T03:03:45;7.53;;;4.57;;
43813;SDS011;29669;55.706;37.656;2023-01-13T03:11:50;5.85;;;4.53;;
43813;SDS011;29669;55.706;37.656;2023-01-13T03:14:34;6.28;;;4.03;;
43813;SDS011;29669;55.706;37.656;2023-01-13T03:17:10;7.05;;;3.88;;
43813;SDS011;29669;55.706;37.656;2023-01-13T03:19:42;5.38;;;3.60;;
43813;SDS011;29669;55.706;37.656;2023-01-13T03:22:35;5.97;;;3.22;;
43813;SDS011;29669;55.706;37.656;2023-01-13T03:25:31;6.82;;;3.95;;
43813;SDS011;29669;55.706;37.656;2023-01-13T03:28:03;7.05;;;3.70;;
43813;SDS011;29669;55.706;37.656;2023-01-13T03:30:38;8.45;;;3.83;;
43813;SDS011;29669;55.706;37.656;2023-01-13T03:33:15;5.63;;;3.13;;
43813;SDS011;29669;55.706;37.656;2023-01-13T03:36:04;5.15;;;3.63;;
43813;SDS011;29669;55.706;37.656;2023-01-13T03:38:36;6.93;;;4.07;;
43813;SDS011;29669;55.706;37.656;2023-01-13T03:41:10;5.45;;;2.80;;
43813;SDS011;29669;55.706;37.656;2023-01-13T03:43:47;8.93;;;3.92;;
43813;SDS011;29669;55.706;37.656;2023-01-13T03:46:37;4.95;;;3.72;;
43813;SDS011;29669;55.706;37.656;2023-01-13T03:49:11;4.43;;;3.22;;
43813;SDS011;29669;55.706;37.656;2023-01-13T03:51:43;7.43;;;3.40;;
43813;SDS011;29669;55.706;37.656;2023-01-13T03:54:14;6.97;;;4.07;;
43813;SDS011;29669;55.706;37.656;2023-01-13T03:56:46;4.18;;;3.35;;
43813;SDS011;29669;55.706;37.656;2023-01-13T03:59:22;5.65;;;3.38;;
43813;SDS011;29669;55.706;37.656;2023-01-13T04:02:01;6.85;;;4.05;;
43813;SDS011;29669;55.706;37.656;2023-01-13T04:04:35;6.85;;;3.78;;
43813;SDS011;29669;55.706;37.656;2023-01-13T04:09:53;8.27;;;3.70;;
43813;SDS011;29669;55.706;37.656;2023-01-13T04:12:32;8.05;;;3.58;;
43813;SDS011;29669;55.706;37.656;2023-01-13T04:15:36;5.40;;;3.15;;
43813;SDS011;29669;55.706;37.656;2023-01-13T04:18:10;5.72;;;3.30;;
43813;SDS011;29669;55.706;37.656;2023-01-13T04:20:40;4.75;;;3.67;;
43813;SDS011;29669;55.706;37.656;2023-01-13T04:23:08;4.75;;;3.20;;
43813;SDS011;29669;55.706;37.656;2023-01-13T04:25:36;4.63;;;3.20;;
43813;SDS011;29669;55.706;37.656;2023-01-13T04:28:03;6.25;;;3.40;;
43813;SDS011;29669;55.706;37.656;2023-01-13T04:30:31;5.28;;;3.95;;
43813;SDS011;29669;55.706;37.656;2023-01-13T04:32:59;7.22;;;4.32;;
43813;SDS011;29669;55.706;37.656;2023-01-13T04:35:27;6.35;;;3.50;;
43813;SDS011;29669;55.706;37.656;2023-01-13T04:37:54;3.70;;;2.85;;
43813;SDS011;29669;55.706;37.656;2023-01-13T04:40:22;6.95;;;3.65;;
43813;SDS011;29669;55.706;37.656;2023-01-13T04:42:50;3.25;;;2.92;;
43813;SDS011;29669;55.706;37.656;2023-01-13T04:45:17;3.80;;;2.97;;
43813;SDS011;29669;55.706;37.656;2023-01-13T04:47:45;5.85;;;3.13;;
43813;SDS011;29669;55.706;37.656;2023-01-13T04:50:13;6.53;;;3.85;;
43813;SDS011;29669;55.706;37.656;2023-01-13T04:52:45;6.07;;;3.70;;
43813;SDS011;29669;55.706;37.656;2023-01-13T04:55:14;4.32;;;3.13;;
43813;SDS011;29669;55.706;37.656;2023-01-13T04:57:41;5.63;;;3.70;;
43813;SDS011;29669;55.706;37.656;2023-01-13T05:00:09;6.63;;;3.55;;
43813;SDS011;29669;55.706;37.656;2023-01-13T05:02:37;10.18;;;3.80;;
43813;SDS011;29669;55.706;37.656;2023-01-13T05:05:05;6.68;;;5.22;;
43813;SDS011;29669;55.706;37.656;2023-01-13T05:07:32;3.80;;;3.38;;
43813;SDS011;29669;55.706;37.656;2023-01-13T05:10:00;6.63;;;3.92;;
43813;SDS011;29669;55.706;37.656;2023-01-13T05:12:29;5.65;;;3.85;;
43813;SDS011;29669;55.706;37.656;2023-01-13T05:15:15;8.48;;;3.72;;
43813;SDS011;29669;55.706;37.656;2023-01-13T05:18:03;4.05;;;2.63;;
43813;SDS011;29669;55.706;37.656;2023-01-13T05:20:31;6.82;;;3.95;;
43813;SDS011;29669;55.706;37.656;2023-01-13T05:22:58;4.60;;;2.65;;
43813;SDS011;29669;55.706;37.656;2023-01-13T05:25:45;6.90;;;3.50;;
43813;SDS011;29669;55.706;37.656;2023-01-13T05:28:14;6.57;;;3.30;;
43813;SDS011;29669;55.706;37.656;2023-01-13T05:30:42;6.03;;;3.05;;
43813;SDS011;29669;55.706;37.656;2023-01-13T05:33:13;5.25;;;3.80;;
43813;SDS011;29669;55.706;37.656;2023-01-13T05:35:43;5.63;;;4.45;;
43813;SDS011;29669;55.706;37.656;2023-01-13T05:38:12;7.07;;;3.38;;
43813;SDS011;29669;55.706;37.656;2023-01-13T05:40:41;5.85;;;3.15;;
43813;SDS011;29669;55.706;37.656;2023-01-13T05:43:29;4.75;;;2.83;;
43813;SDS011;29669;55.706;37.656;2023-01-13T05:46:08;6.32;;;3.28;;
43813;SDS011;29669;55.706;37.656;2023-01-13T05:48:37;4.05;;;2.60;;
43813;SDS011;29669;55.706;37.656;2023-01-13T05:51:07;6.18;;;3.50;;
43813;SDS011;29669;55.706;37.656;2023-01-13T05:53:36;5.43;;;2.92;;
43813;SDS011;29669;55.706;37.656;2023-01-13T05:56:04;4.43;;;3.00;;
43813;SDS011;29669;55.706;37.656;2023-01-13T05:58:32;3.53;;;2.80;;
43813;SDS011;29669;55.706;37.656;2023-01-13T06:01:00;3.85;;;2.90;;
43813;SDS011;29669;55.706;37.656;2023-01-13T06:03:27;5.70;;;2.75;;
43813;SDS011;29669;55.706;37.656;2023-01-13T06:05:57;6.95;;;2.92;;
43813;SDS011;29669;55.706;37.656;2023-01-13T06:08:28;4.32;;;2.67;;
43813;SDS011;29669;55.706;37.656;2023-01-13T06:10:56;7.97;;;3.38;;
43813;SDS011;29669;55.706;37.656;2023-01-13T06:13:23;5.28;;;2.88;;
43813;SDS011;29669;55.706;37.656;2023-01-13T06:15:54;4.80;;;3.10;;
43813;SDS011;29669;55.706;37.656;2023-01-13T06:18:24;7.93;;;3.65;;
43813;SDS011;29669;55.706;37.656;2023-01-13T06:20:52;6.18;;;3.10;;
43813;SDS011;29669;55.706;37.656;2023-01-13T06:23:20;5.03;;;2.95;;
43813;SDS011;29669;55.706;37.656;2023-01-13T06:25:51;4.18;;;3.15;;
43813;SDS011;29669;55.706;37.656;2023-01-13T06:28:19;4.75;;;2.72;;
43813;SDS011;29669;55.706;37.656;2023-01-13T06:30:50;5.80;;;2.95;;
43813;SDS011;29669;55.706;37.656;2023-01-13T06:33:23;3.97;;;2.63;;
43813;SDS011;29669;55.706;37.656;2023-01-13T06:35:57;6.32;;;3.78;;
43813;SDS011;29669;55.706;37.656;2023-01-13T06:38:28;4.60;;;3.45;;
43813;SDS011;29669;55.706;37.656;2023-01-13T06:41:00;5.60;;;3.70;;
43813;SDS011;29669;55.706;37.656;2023-01-13T06:43:28;5.45;;;3.35;;
43813;SDS011;29669;55.706;37.656;2023-01-13T06:45:55;6.38;;;2.63;;
43813;SDS011;29669;55.706;37.656;2023-01-13T06:48:24;6.00;;;3.05;;
43813;SDS011;29669;55.706;37.656;2023-01-13T06:50:54;3.42;;;2.28;;
43813;SDS011;29669;55.706;37.656;2023-01-13T06:53:22;3.45;;;2.72;;
43813;SDS011;29669;55.706;37.656;2023-01-13T06:55:49;4.32;;;2.78;;
43813;SDS011;29669;55.706;37.656;2023-01-13T06:58:17;5.30;;;3.22;;
43813;SDS011;29669;55.706;37.656;2023-01-13T07:00:44;5.20;;;3.53;;
43813;SDS011;29669;55.706;37.656;2023-01-13T07:03:17;9.43;;;2.67;;
43813;SDS011;29669;55.706;37.656;2023-01-13T07:05:53;6.35;;;2.88;;
43813;SDS011;29669;55.706;37.656;2023-01-13T07:08:22;5.60;;;2.88;;
43813;SDS011;29669;55.706;37.656;2023-01-13T07:10:50;5.53;;;2.88;;
43813;SDS011;29669;55.706;37.656;2023-01-13T07:13:17;6.38;;;3.28;;
43813;SDS011;29669;55.706;37.656;2023-01-13T07:16:04;6.18;;;2.60;;
43813;SDS011;29669;55.706;37.656;2023-01-13T07:18:33;5.55;;;3.08;;
43813;SDS011;29669;55.706;37.656;2023-01-13T07:21:04;7.90;;;3.97;;
43813;SDS011;29669;55.706;37.656;2023-01-13T07:23:36;2.85;;;2.40;;
43813;SDS011;29669;55.706;37.656;2023-01-13T07:26:08;4.15;;;2.97;;
43813;SDS011;29669;55.706;37.656;2023-01-13T07:28:37;7.00;;;3.25;;
43813;SDS011;29669;55.706;37.656;2023-01-13T07:31:04;4.40;;;2.83;;
43813;SDS011;29669;55.706;37.656;2023-01-13T07:33:38;5.72;;;4.13;;
43813;SDS011;29669;55.706;37.656;2023-01-13T07:36:06;4.82;;;3.40;;
43813;SDS011;29669;55.706;37.656;2023-01-13T07:38:34;4.15;;;2.60;;
43813;SDS011;29669;55.706;37.656;2023-01-13T07:41:04;6.55;;;3.20;;
43813;SDS011;29669;55.706;37.656;2023-01-13T07:43:51;4.82;;;2.72;;
43813;SDS011;29669;55.706;37.656;2023-01-13T07:46:19;5.82;;;2.95;;
43813;SDS011;29669;55.706;37.656;2023-01-13T07:48:46;5.40;;;2.92;;
43813;SDS011;29669;55.706;37.656;2023-01-13T07:51:15;8.95;;;3.15;;
43813;SDS011;29669;55.706;37.656;2023-01-13T07:53:42;8.73;;;3.83;;
43813;SDS011;29669;55.706;37.656;2023-01-13T07:56:10;5.57;;;2.80;;
43813;SDS011;29669;55.706;37.656;2023-01-13T07:58:37;4.15;;;2.80;;
43813;SDS011;29669;55.706;37.656;2023-01-13T08:01:08;5.95;;;3.45;;
43813;SDS011;29669;55.706;37.656;2023-01-13T08:03:36;2.97;;;2.67;;
43813;SDS011;29669;55.706;37.656;2023-01-13T08:06:04;4.35;;;2.40;;
43813;SDS011;29669;55.706;37.656;2023-01-13T08:08:33;4.32;;;2.58;;
43813;SDS011;29669;55.706;37.656;2023-01-13T08:11:01;3.78;;;2.28;;
43813;SDS011;29669;55.706;37.656;2023-01-13T08:13:30;4.47;;;2.60;;
43813;SDS011;29669;55.706;37.656;2023-01-13T08:16:08;3.83;;;2.40;;
43813;SDS011;29669;55.706;37.656;2023-01-13T08:18:38;6.60;;;3.45;;
43813;SDS011;29669;55.706;37.656;2023-01-13T08:21:07;6.45;;;2.67;;
43813;SDS011;29669;55.706;37.656;2023-01-13T08:23:39;8.95;;;3.53;;
43813;SDS011;29669;55.706;37.656;2023-01-13T08:26:12;6.07;;;3.03;;
43813;SDS011;29669;55.706;37.656;2023-01-13T08:28:43;4.70;;;3.15;;
43813;SDS011;29669;55.706;37.656;2023-01-13T08:31:12;6.40;;;2.90;;
43813;SDS011;29669;55.706;37.656;2023-01-13T08:33:42;4.55;;;2.88;;
43813;SDS011;29669;55.706;37.656;2023-01-13T08:36:11;4.25;;;3.15;;
43813;SDS011;29669;55.706;37.656;2023-01-13T08:38:39;3.95;;;2.88;;
43813;SDS011;29669;55.706;37.656;2023-01-13T08:41:11;5.60;;;2.78;;
43813;SDS011;29669;55.706;37.656;2023-01-13T08:43:40;5.72;;;2.70;;
43813;SDS011;29669;55.706;37.656;2023-01-13T08:46:08;6.82;;;2.90;;
43813;SDS011;29669;55.706;37.656;2023-01-13T08:48:36;6.07;;;3.03;;
43813;SDS011;29669;55.706;37.656;2023-01-13T08:51:04;5.65;;;2.92;;
43813;SDS011;29669;55.706;37.656;2023-01-13T08:53:33;9.10;;;3.75;;
43813;SDS011;29669;55.706;37.656;2023-01-13T08:56:05;4.38;;;2.55;;
43813;SDS011;29669;55.706;37.656;2023-01-13T08:58:33;4.65;;;2.72;;
43813;SDS011;29669;55.706;37.656;2023-01-13T09:01:04;7.10;;;3.22;;
43813;SDS011;29669;55.706;37.656;2023-01-13T09:03:33;4.05;;;2.60;;
43813;SDS011;29669;55.706;37.656;2023-01-13T09:06:00;8.88;;;2.90;;
43813;SDS011;29669;55.706;37.656;2023-01-13T09:08:27;5.80;;;3.15;;
43813;SDS011;29669;55.706;37.656;2023-01-13T09:10:55;5.07;;;2.90;;
43813;SDS011;29669;55.706;37.656;2023-01-13T09:13:22;4.10;;;2.72;;
43813;SDS011;29669;55.706;37.656;2023-01-13T09:15:50;5.18;;;2.67;;
43813;SDS011;29669;55.706;37.656;2023-01-13T09:18:22;6.75;;;2.85;;
43813;SDS011;29669;55.706;37.656;2023-01-13T09:20:49;5.35;;;2.70;;
43813;SDS011;29669;55.706;37.656;2023-01-13T09:23:17;8.75;;;3.50;;
43813;SDS011;29669;55.706;37.656;2023-01-13T09:25:44;7.00;;;3.35;;
43813;SDS011;29669;55.706;37.656;2023-01-13T09:28:12;6.32;;;3.17;;
43813;SDS011;29669;55.706;37.656;2023-01-13T09:30:39;7.07;;;3.38;;
43813;SDS011;29669;55.706;37.656;2023-01-13T09:33:06;7.80;;;3.47;;
43813;SDS011;29669;55.706;37.656;2023-01-13T09:35:56;4.53;;;2.90;;
43813;SDS011;29669;55.706;37.656;2023-01-13T09:38:25;4.53;;;2.90;;
43813;SDS011;29669;55.706;37.656;2023-01-13T09:40:53;3.80;;;3.00;;
43813;SDS011;29669;55.706;37.656;2023-01-13T09:43:22;4.40;;;2.83;;
43813;SDS011;29669;55.706;37.656;2023-01-13T09:46:23;3.45;;;2.42;;
43813;SDS011;29669;55.706;37.656;2023-01-13T09:49:16;5.22;;;2.70;;
43813;SDS011;29669;55.706;37.656;2023-01-13T09:51:51;3.40;;;2.10;;
43813;SDS011;29669;55.706;37.656;2023-01-13T09:54:37;9.75;;;3.00;;
43813;SDS011;29669;55.706;37.656;2023-01-13T09:57:09;6.65;;;3.00;;
43813;SDS011;29669;55.706;37.656;2023-01-13T09:59:38;4.88;;;3.05;;
43813;SDS011;29669;55.706;37.656;2023-01-13T10:07:53;4.35;;;3.63;;
43813;SDS011;29669;55.706;37.656;2023-01-13T10:10:32;7.03;;;2.97;;
43813;SDS011;29669;55.706;37.656;2023-01-13T10:13:27;6.20;;;3.30;;
43813;SDS011;29669;55.706;37.656;2023-01-13T10:18:55;7.13;;;3.17;;
43813;SDS011;29669;55.706;37.656;2023-01-13T10:34:49;7.22;;;2.95;;
43813;SDS011;29669;55.706;37.656;2023-01-13T10:38:37;8.05;;;3.35;;
43813;SDS011;29669;55.706;37.656;2023-01-13T10:42:19;6.03;;;2.80;;
43813;SDS011;29669;55.706;37.656;2023-01-13T10:53:13;7.85;;;3.30;;
43813;SDS011;29669;55.706;37.656;2023-01-13T10:56:00;9.05;;;3.25;;
43813;SDS011;29669;55.706;37.656;2023-01-13T10:58:38;4.95;;;3.33;;
43813;SDS011;29669;55.706;37.656;2023-01-13T12:21:05;6.93;;;3.42;;
43813;SDS011;29669;55.706;37.656;2023-01-13T12:33:12;5.70;;;3.22;;
43813;SDS011;29669;55.706;37.656;2023-01-13T12:35:50;6.10;;;3.42;;
43813;SDS011;29669;55.706;37.656;2023-01-13T12:38:33;12.70;;;3.40;;
43813;SDS011;29669;55.706;37.656;2023-01-13T12:41:11;6.38;;;3.75;;
43813;SDS011;29669;55.706;37.656;2023-01-13T12:43:48;6.90;;;3.53;;
43813;SDS011;29669;55.706;37.656;2023-01-13T12:46:47;5.28;;;3.72;;
43813;SDS011;29669;55.706;37.656;2023-01-13T12:49:20;7.90;;;3.80;;
43813;SDS011;29669;55.706;37.656;2023-01-13T12:56:57;8.35;;;4.70;;
43813;SDS011;29669;55.706;37.656;2023-01-13T13:04:43;7.30;;;4.10;;
43813;SDS011;29669;55.706;37.656;2023-01-13T13:07:21;6.53;;;4.05;;
43813;SDS011;29669;55.706;37.656;2023-01-13T13:10:22;8.35;;;4.65;;
43813;SDS011;29669;55.706;37.656;2023-01-13T13:13:54;5.82;;;3.72;;
43813;SDS011;29669;55.706;37.656;2023-01-13T13:19:12;9.10;;;4.55;;
43813;SDS011;29669;55.706;37.656;2023-01-13T13:24:38;7.50;;;4.15;;
43813;SDS011;29669;55.706;37.656;2023-01-13T13:29:58;9.43;;;4.57;;
43813;SDS011;29669;55.706;37.656;2023-01-13T13:41:46;7.22;;;4.28;;
43813;SDS011;29669;55.706;37.656;2023-01-13T13:44:38;7.63;;;4.03;;
43813;SDS011;29669;55.706;37.656;2023-01-13T13:47:36;5.70;;;3.55;;
43813;SDS011;29669;55.706;37.656;2023-01-13T13:50:15;7.00;;;3.85;;
43813;SDS011;29669;55.706;37.656;2023-01-13T13:53:04;7.88;;;4.43;;
43813;SDS011;29669;55.706;37.656;2023-01-13T13:55:35;10.63;;;4.80;;
43813;SDS011;29669;55.706;37.656;2023-01-13T13:58:02;6.32;;;4.03;;
43813;SDS011;29669;55.706;37.656;2023-01-13T14:00:31;11.80;;;4.03;;
43813;SDS011;29669;55.706;37.656;2023-01-13T14:03:02;9.90;;;4.43;;
43813;SDS011;29669;55.706;37.656;2023-01-13T14:05:33;6.07;;;4.07;;
43813;SDS011;29669;55.706;37.656;2023-01-13T14:10:36;5.50;;;3.53;;
43813;SDS011;29669;55.706;37.656;2023-01-13T14:13:22;9.32;;;4.38;;
43813;SDS011;29669;55.706;37.656;2023-01-13T14:18:41;10.73;;;4.60;;
43813;SDS011;29669;55.706;37.656;2023-01-13T14:21:26;6.05;;;3.58;;
43813;SDS011;29669;55.706;37.656;2023-01-13T14:23:56;10.00;;;4.82;;
43813;SDS011;29669;55.706;37.656;2023-01-13T14:26:25;8.70;;;4.78;;
43813;SDS011;29669;55.706;37.656;2023-01-13T14:28:53;10.00;;;4.82;;
43813;SDS011;29669;55.706;37.656;2023-01-13T14:31:22;10.65;;;4.53;;
43813;SDS011;29669;55.706;37.656;2023-01-13T14:33:51;9.50;;;5.20;;
43813;SDS011;29669;55.706;37.656;2023-01-13T14:36:22;6.13;;;4.00;;
43813;SDS011;29669;55.706;37.656;2023-01-13T14:44:47;8.75;;;4.47;;
43813;SDS011;29669;55.706;37.656;2023-01-13T14:46:58;9.90;;;4.53;;
43813;SDS011;29669;55.706;37.656;2023-01-13T14:49:35;10.70;;;4.65;;
43813;SDS011;29669;55.706;37.656;2023-01-13T14:52:13;13.77;;;6.30;;
43813;SDS011;29669;55.706;37.656;2023-01-13T14:55:16;7.78;;;4.18;;
43813;SDS011;29669;55.706;37.656;2023-01-13T14:58:16;8.98;;;4.53;;
43813;SDS011;29669;55.706;37.656;2023-01-13T15:00:43;9.48;;;4.63;;
43813;SDS011;29669;55.706;37.656;2023-01-13T15:03:12;10.02;;;4.68;;
43813;SDS011;29669;55.706;37.656;2023-01-13T15:05:42;9.98;;;3.83;;
43813;SDS011;29669;55.706;37.656;2023-01-13T15:13:38;7.80;;;5.07;;
43813;SDS011;29669;55.706;37.656;2023-01-13T15:16:17;8.00;;;4.43;;
43813;SDS011;29669;55.706;37.656;2023-01-13T15:18:47;7.90;;;4.18;;
43813;SDS011;29669;55.706;37.656;2023-01-13T15:21:16;9.77;;;5.82;;
43813;SDS011;29669;55.706;37.656;2023-01-13T15:23:44;9.05;;;4.68;;
43813;SDS011;29669;55.706;37.656;2023-01-13T15:26:18;10.07;;;4.80;;
43813;SDS011;29669;55.706;37.656;2023-01-13T15:28:48;9.00;;;4.70;;
43813;SDS011;29669;55.706;37.656;2023-01-13T15:31:16;12.40;;;5.50;;
43813;SDS011;29669;55.706;37.656;2023-01-13T15:33:43;13.93;;;6.75;;
43813;SDS011;29669;55.706;37.656;2023-01-13T15:36:30;10.75;;;5.20;;
43813;SDS011;29669;55.706;37.656;2023-01-13T15:38:59;9.20;;;5.03;;
43813;SDS011;29669;55.706;37.656;2023-01-13T15:41:27;11.35;;;6.13;;
43813;SDS011;29669;55.706;37.656;2023-01-13T15:44:14;10.77;;;5.85;;
43813;SDS011;29669;55.706;37.656;2023-01-13T15:47:02;9.98;;;4.72;;
43813;SDS011;29669;55.706;37.656;2023-01-13T15:49:38;8.55;;;4.53;;
43813;SDS011;29669;55.706;37.656;2023-01-13T15:52:20;9.57;;;5.22;;
43813;SDS011;29669;55.706;37.656;2023-01-13T15:54:49;12.05;;;5.22;;
43813;SDS011;29669;55.706;37.656;2023-01-13T15:57:22;12.20;;;5.70;;
43813;SDS011;29669;55.706;37.656;2023-01-13T15:59:52;8.35;;;4.82;;
43813;SDS011;29669;55.706;37.656;2023-01-13T16:02:22;15.02;;;5.15;;
43813;SDS011;29669;55.706;37.656;2023-01-13T16:04:51;10.25;;;5.63;;
43813;SDS011;29669;55.706;37.656;2023-01-13T16:07:20;7.13;;;4.57;;
43813;SDS011;29669;55.706;37.656;2023-01-13T16:09:49;11.57;;;5.60;;
43813;SDS011;29669;55.706;37.656;2023-01-13T16:12:17;10.48;;;5.53;;
43813;SDS011;29669;55.706;37.656;2023-01-13T16:14:44;14.73;;;5.10;;
43813;SDS011;29669;55.706;37.656;2023-01-13T16:17:16;10.35;;;4.55;;
43813;SDS011;29669;55.706;37.656;2023-01-13T16:19:56;7.18;;;4.47;;
43813;SDS011;29669;55.706;37.656;2023-01-13T16:22:23;8.73;;;5.43;;
43813;SDS011;29669;55.706;37.656;2023-01-13T16:24:51;9.60;;;5.07;;
43813;SDS011;29669;55.706;37.656;2023-01-13T16:27:22;8.80;;;5.60;;
43813;SDS011;29669;55.706;37.656;2023-01-13T16:29:51;14.27;;;5.50;;
43813;SDS011;29669;55.706;37.656;2023-01-13T16:32:18;12.40;;;4.78;;
43813;SDS011;29669;55.706;37.656;2023-01-13T16:34:47;9.45;;;4.50;;
43813;SDS011;29669;55.706;37.656;2023-01-13T16:39:47;11.68;;;5.75;;
43813;SDS011;29669;55.706;37.656;2023-01-13T16:42:15;11.88;;;5.90;;
43813;SDS011;29669;55.706;37.656;2023-01-13T16:44:42;11.43;;;4.60;;
43813;SDS011;29669;55.706;37.656;2023-01-13T16:47:13;8.13;;;4.78;;
43813;SDS011;29669;55.706;37.656;2023-01-13T16:49:42;8.95;;;5.25;;
43813;SDS011;29669;55.706;37.656;2023-01-13T16:52:10;11.93;;;5.90;;
43813;SDS011;29669;55.706;37.656;2023-01-13T16:54:38;9.60;;;5.72;;
43813;SDS011;29669;55.706;37.656;2023-01-13T16:57:11;12.65;;;5.93;;
43813;SDS011;29669;55.706;37.656;2023-01-13T16:59:39;12.90;;;5.90;;
43813;SDS011;29669;55.706;37.656;2023-01-13T17:02:13;13.65;;;6.13;;
43813;SDS011;29669;55.706;37.656;2023-01-13T17:04:41;8.70;;;5.15;;
43813;SDS011;29669;55.706;37.656;2023-01-13T17:07:10;11.70;;;5.53;;
43813;SDS011;29669;55.706;37.656;2023-01-13T17:09:41;12.13;;;6.15;;
43813;SDS011;29669;55.706;37.656;2023-01-13T17:12:09;14.90;;;6.97;;
43813;SDS011;29669;55.706;37.656;2023-01-13T17:14:36;9.60;;;5.78;;
43813;SDS011;29669;55.706;37.656;2023-01-13T17:17:04;12.70;;;5.90;;
43813;SDS011;29669;55.706;37.656;2023-01-13T17:19:31;14.88;;;6.93;;
43813;SDS011;29669;55.706;37.656;2023-01-13T17:21:59;11.60;;;5.70;;
43813;SDS011;29669;55.706;37.656;2023-01-13T17:24:27;12.93;;;7.75;;
43813;SDS011;29669;55.706;37.656;2023-01-13T17:26:57;11.60;;;5.57;;
43813;SDS011;29669;55.706;37.656;2023-01-13T17:29:24;14.32;;;5.97;;
43813;SDS011;29669;55.706;37.656;2023-01-13T17:31:54;10.32;;;5.35;;
43813;SDS011;29669;55.706;37.656;2023-01-13T17:34:21;11.70;;;5.63;;
43813;SDS011;29669;55.706;37.656;2023-01-13T17:36:49;12.48;;;6.72;;
43813;SDS011;29669;55.706;37.656;2023-01-13T17:39:18;14.05;;;5.30;;
43813;SDS011;29669;55.706;37.656;2023-01-13T17:41:51;14.40;;;5.68;;
43813;SDS011;29669;55.706;37.656;2023-01-13T17:44:19;13.15;;;5.25;;
43813;SDS011;29669;55.706;37.656;2023-01-13T17:46:48;13.95;;;5.50;;
43813;SDS011;29669;55.706;37.656;2023-01-13T17:49:16;8.10;;;5.35;;
43813;SDS011;29669;55.706;37.656;2023-01-13T17:51:45;9.02;;;5.97;;
43813;SDS011;29669;55.706;37.656;2023-01-13T17:54:14;8.57;;;4.88;;
43813;SDS011;29669;55.706;37.656;2023-01-13T17:56:42;12.80;;;5.35;;
43813;SDS011;29669;55.706;37.656;2023-01-13T17:59:13;12.18;;;5.38;;
43813;SDS011;29669;55.706;37.656;2023-01-13T18:01:42;13.48;;;5.40;;
43813;SDS011;29669;55.706;37.656;2023-01-13T18:04:16;10.95;;;6.00;;
43813;SDS011;29669;55.706;37.656;2023-01-13T18:06:44;10.50;;;4.50;;
43813;SDS011;29669;55.706;37.656;2023-01-13T18:09:12;9.35;;;5.45;;
43813;SDS011;29669;55.706;37.656;2023-01-13T18:11:41;16.35;;;5.95;;
43813;SDS011;29669;55.706;37.656;2023-01-13T18:14:11;9.32;;;5.65;;
43813;SDS011;29669;55.706;37.656;2023-01-13T18:16:38;8.88;;;4.22;;
43813;SDS011;29669;55.706;37.656;2023-01-13T18:19:06;12.35;;;5.43;;
43813;SDS011;29669;55.706;37.656;2023-01-13T18:21:52;9.98;;;4.90;;
43813;SDS011;29669;55.706;37.656;2023-01-13T18:24:38;11.73;;;4.78;;
43813;SDS011;29669;55.706;37.656;2023-01-13T18:27:30;11.23;;;4.55;;
43813;SDS011;29669;55.706;37.656;2023-01-13T18:30:02;10.70;;;5.57;;